Kinsale, Virginia
Current Conditions -  °F | °C
As of 3:53 PM on Saturday 20 Dec 2014 (Local Time) from KNUI Reporting Station
Overcast Overcast  
Wind Chill: 32°   Ceiling: 10000
Heat Index: 36°   Visibility: 10mi
Dew Point: 22°   Wind: 5mph
Humidity: 57%   Direction: 290°WNW
Pressure: 30.27"   Gusts: NA
Location:  38.03°N, 76.58°W
Report Text: KNUI 202053Z AUTO 29004KT 10SM OVC100 02/M06 A3027 RMK AO2 SLP250 T00221056 55002
Loading
Personal Weather Stations






























Interactive Weather Map New forecast layout! Learn more

10-Day Weather Forecast

Advertisements
Track Severe Weather on mobile